Time;durP1;ratioP1;P1;durP2;ratioP2;P2;SDS_P1;SDS_P2;PMS_P1;PMS_P2;Temp;Humidity;BMP_temperature;BMP_pressure;BME280_temperature;BME280_humidity;BME280_pressure;Samples;Min_cycle;Max_cycle;Signal;HPM_P1;HPM_P2
2022/04/10 00:00:17;;;;;;;18.98;6.55;;;;;;;;;;5050474;28;20128;-59
2022/04/10 00:02:44;;;;;;;13.95;5.97;;;;;;;;;;5052688;28;20378;-59
2022/04/10 00:05:10;;;;;;;15.18;5.68;;;;;;;;;;5052610;28;20024;-61
2022/04/10 00:07:36;;;;;;;18.10;5.80;;;;;;;;;;5053088;28;20056;-58
2022/04/10 00:10:03;;;;;;;13.05;5.68;;;;;;;;;;5052173;28;20409;-61
2022/04/10 00:12:29;;;;;;;16.25;5.60;;;;;;;;;;5052432;28;20025;-60
2022/04/10 00:14:55;;;;;;;15.65;5.70;;;;;;;;;;5052189;28;20046;-58
2022/04/10 00:17:21;;;;;;;17.50;6.45;;;;;;;;;;5052714;28;20025;-60
2022/04/10 00:19:47;;;;;;;14.15;5.93;;;;;;;;;;5052000;28;20032;-60
2022/04/10 00:22:13;;;;;;;17.17;5.63;;;;;;;;;;5052728;28;20017;-60
2022/04/10 00:24:39;;;;;;;15.82;6.88;;;;;;;;;;5052002;28;20045;-59
2022/04/10 00:27:05;;;;;;;14.32;5.82;;;;;;;;;;5050962;28;20021;-59
2022/04/10 00:29:31;;;;;;;18.00;6.25;;;;;;;;;;5051956;28;20025;-62
2022/04/10 00:31:58;;;;;;;13.63;5.40;;;;;;;;;;5052341;28;20025;-60
2022/04/10 00:34:24;;;;;;;19.73;6.03;;;;;;;;;;5051976;28;20036;-60
2022/04/10 00:36:50;;;;;;;16.48;6.20;;;;;;;;;;5052505;28;20460;-59
2022/04/10 00:39:16;;;;;;;16.38;6.22;;;;;;;;;;5050624;28;20064;-61
2022/04/10 00:41:42;;;;;;;17.85;8.25;;;;;;;;;;5051002;28;20027;-60
2022/04/10 00:44:09;;;;;;;16.83;6.35;;;;;;;;;;5050578;28;20057;-59
2022/04/10 00:46:35;;;;;;;14.50;6.13;;;;;;;;;;5052219;28;20063;-60
2022/04/10 00:49:01;;;;;;;16.42;6.25;;;;;;;;;;5051672;28;20062;-61
2022/04/10 00:51:40;;;;;;;18.02;5.88;;;;;;;;;;5052176;28;20039;-62
2022/04/10 00:54:07;;;;;;;17.65;6.45;;;;;;;;;;5051828;28;20025;-60
2022/04/10 00:56:33;;;;;;;16.20;7.68;;;;;;;;;;5052031;28;20033;-62
2022/04/10 00:58:59;;;;;;;18.58;7.18;;;;;;;;;;5051570;28;20032;-61
2022/04/10 01:01:25;;;;;;;19.30;7.40;;;;;;;;;;5050597;28;20028;-61
2022/04/10 01:03:51;;;;;;;18.13;8.20;;;;;;;;;;5051911;28;20384;-62
2022/04/10 01:06:17;;;;;;;20.30;7.63;;;;;;;;;;5051927;28;20032;-62
2022/04/10 01:08:43;;;;;;;21.98;8.80;;;;;;;;;;5050644;28;20397;-61
2022/04/10 01:11:09;;;;;;;19.58;7.93;;;;;;;;;;5051758;28;20017;-60
2022/04/10 01:13:35;;;;;;;18.70;8.57;;;;;;;;;;5051910;28;20078;-62
2022/04/10 01:16:01;;;;;;;24.50;9.55;;;;;;;;;;5051446;28;20547;-61
2022/04/10 01:18:27;;;;;;;24.25;9.68;;;;;;;;;;5051848;28;20060;-61
2022/04/10 01:20:53;;;;;;;33.58;12.15;;;;;;;;;;5051536;28;20025;-62
2022/04/10 01:23:19;;;;;;;29.38;11.77;;;;;;;;;;5051872;28;20047;-62
2022/04/10 01:25:45;;;;;;;23.80;11.35;;;;;;;;;;5051480;28;20071;-59
2022/04/10 01:28:14;;;;;;;23.38;10.38;;;;;;;;;;5052558;28;20025;-62
2022/04/10 01:30:43;;;;;;;23.15;10.95;;;;;;;;;;5055202;28;20024;-61
2022/04/10 01:33:08;;;;;;;;;;;;;;;;;;5056165;28;20430;-62
2022/04/10 01:35:35;;;;;;;26.17;13.00;;;;;;;;;;5055343;28;19944;-60
2022/04/10 01:38:01;;;;;;;29.98;11.20;;;;;;;;;;5055211;28;20110;-59
2022/04/10 01:40:27;;;;;;;23.42;11.23;;;;;;;;;;5053823;28;20029;-60
2022/04/10 01:42:53;;;;;;;28.05;11.43;;;;;;;;;;5055410;28;20576;-60
2022/04/10 01:45:19;;;;;;;22.80;10.52;;;;;;;;;;5055083;28;20036;-59
2022/04/10 01:47:45;;;;;;;21.63;9.35;;;;;;;;;;5054416;28;20025;-60
2022/04/10 01:50:12;;;;;;;20.45;8.95;;;;;;;;;;5054811;28;20021;-61
2022/04/10 01:52:38;;;;;;;20.83;8.25;;;;;;;;;;5055069;28;20175;-61
2022/04/10 01:55:04;;;;;;;22.40;9.00;;;;;;;;;;5054983;28;20092;-60
2022/04/10 01:57:30;;;;;;;18.27;8.23;;;;;;;;;;5054876;28;20087;-62
2022/04/10 01:59:56;;;;;;;21.05;8.75;;;;;;;;;;5053547;28;20118;-60
2022/04/10 02:02:22;;;;;;;20.73;8.18;;;;;;;;;;5055163;28;20017;-59
2022/04/10 02:04:47;;;;;;;20.20;8.30;;;;;;;;;;5054732;28;20470;-62
2022/04/10 02:07:13;;;;;;;19.77;8.05;;;;;;;;;;5055046;28;20035;-59
2022/04/10 02:09:39;;;;;;;18.67;7.90;;;;;;;;;;5054623;28;20021;-59
2022/04/10 02:12:06;;;;;;;17.92;8.10;;;;;;;;;;5054864;28;20066;-61
2022/04/10 02:14:31;;;;;;;17.45;7.72;;;;;;;;;;5054295;28;20094;-61
2022/04/10 02:16:57;;;;;;;28.17;9.60;;;;;;;;;;5054829;28;20540;-61
2022/04/10 02:19:23;;;;;;;18.23;8.20;;;;;;;;;;5053246;28;20025;-61
2022/04/10 02:21:50;;;;;;;22.48;7.93;;;;;;;;;;5053519;28;20017;-60
2022/04/10 02:24:16;;;;;;;25.95;8.70;;;;;;;;;;5054262;28;20025;-61
2022/04/10 02:26:42;;;;;;;21.55;8.68;;;;;;;;;;5054621;28;20108;-61
2022/04/10 02:29:08;;;;;;;23.95;10.35;;;;;;;;;;5052758;28;20036;-62
2022/04/10 02:31:34;;;;;;;23.33;9.63;;;;;;;;;;5054464;28;20017;-60
2022/04/10 02:34:00;;;;;;;18.15;8.73;;;;;;;;;;5053028;28;20033;-59
2022/04/10 02:36:26;;;;;;;23.20;10.18;;;;;;;;;;5053106;28;20050;-61
2022/04/10 02:38:52;;;;;;;20.98;8.75;;;;;;;;;;5053659;28;20025;-60
2022/04/10 02:41:18;;;;;;;18.38;8.63;;;;;;;;;;5053000;28;20060;-59
2022/04/10 02:43:44;;;;;;;28.42;11.18;;;;;;;;;;5054125;28;20079;-62
2022/04/10 02:46:10;;;;;;;20.58;10.18;;;;;;;;;;5052766;28;20127;-61
2022/04/10 02:48:36;;;;;;;19.70;8.88;;;;;;;;;;5053125;28;20051;-60
2022/04/10 02:51:02;;;;;;;20.70;9.50;;;;;;;;;;5053798;28;20120;-60
2022/04/10 02:53:29;;;;;;;22.85;9.10;;;;;;;;;;5053060;28;20059;-62
2022/04/10 02:55:55;;;;;;;24.23;10.35;;;;;;;;;;5053641;28;20086;-58
2022/04/10 02:58:21;;;;;;;20.20;9.52;;;;;;;;;;5052698;28;20170;-62
2022/04/10 03:00:47;;;;;;;25.90;9.90;;;;;;;;;;5052559;28;20182;-61
2022/04/10 03:03:13;;;;;;;24.50;10.95;;;;;;;;;;5054055;28;20074;-60
2022/04/10 03:05:39;;;;;;;21.17;8.73;;;;;;;;;;5053708;28;20024;-60
2022/04/10 03:08:06;;;;;;;20.85;8.82;;;;;;;;;;5052919;28;20017;-61
2022/04/10 03:10:32;;;;;;;21.88;10.88;;;;;;;;;;5052554;28;20111;-60
2022/04/10 03:12:58;;;;;;;25.30;10.30;;;;;;;;;;5053922;28;20511;-63
2022/04/10 03:15:24;;;;;;;24.60;8.82;;;;;;;;;;5053623;28;20025;-62
2022/04/10 03:17:49;;;;;;;21.55;10.05;;;;;;;;;;5053962;28;20478;-61
2022/04/10 03:20:16;;;;;;;24.05;10.15;;;;;;;;;;5053695;28;20029;-62
2022/04/10 03:22:42;;;;;;;20.75;8.85;;;;;;;;;;5052413;28;20036;-62
2022/04/10 03:25:08;;;;;;;23.55;9.98;;;;;;;;;;5051957;28;20024;-60
2022/04/10 03:27:34;;;;;;;20.70;8.77;;;;;;;;;;5053443;28;20473;-62
2022/04/10 03:30:01;;;;;;;22.38;9.55;;;;;;;;;;5053027;28;20060;-62
2022/04/10 03:32:27;;;;;;;20.60;8.13;;;;;;;;;;5053264;28;20029;-62
2022/04/10 03:34:52;;;;;;;20.65;8.80;;;;;;;;;;5052827;28;20032;-62
2022/04/10 03:37:18;;;;;;;21.83;10.02;;;;;;;;;;5053308;28;20055;-62
2022/04/10 03:39:44;;;;;;;19.40;9.48;;;;;;;;;;5052919;28;20104;-61
2022/04/10 03:42:10;;;;;;;23.15;9.38;;;;;;;;;;5053173;28;20025;-61
2022/04/10 03:44:36;;;;;;;22.20;8.80;;;;;;;;;;5052940;28;20025;-61
2022/04/10 03:47:02;;;;;;;25.58;9.30;;;;;;;;;;5053100;28;20054;-62
2022/04/10 03:49:28;;;;;;;27.02;10.13;;;;;;;;;;5052427;28;20025;-59
2022/04/10 03:51:54;;;;;;;17.77;7.43;;;;;;;;;;5052490;28;20386;-59
2022/04/10 03:54:20;;;;;;;21.23;8.02;;;;;;;;;;5052530;28;20027;-60
2022/04/10 03:56:46;;;;;;;27.52;10.15;;;;;;;;;;5052781;28;20036;-59
2022/04/10 03:59:12;;;;;;;21.27;9.25;;;;;;;;;;5052262;28;20021;-61
2022/04/10 04:01:38;;;;;;;23.63;10.93;;;;;;;;;;5052952;28;20485;-62
2022/04/10 04:04:04;;;;;;;26.55;10.65;;;;;;;;;;5050978;28;20051;-62
2022/04/10 04:06:30;;;;;;;20.65;9.20;;;;;;;;;;5051394;28;20441;-61
2022/04/10 04:08:56;;;;;;;25.52;10.73;;;;;;;;;;5051009;28;20508;-63
2022/04/10 04:11:22;;;;;;;24.10;10.32;;;;;;;;;;5051424;28;20025;-62
2022/04/10 04:13:48;;;;;;;23.05;10.45;;;;;;;;;;5052679;28;20457;-62
2022/04/10 04:16:14;;;;;;;23.77;9.70;;;;;;;;;;5052349;28;20029;-60
2022/04/10 04:18:40;;;;;;;23.20;10.20;;;;;;;;;;5051381;28;20031;-61
2022/04/10 04:21:06;;;;;;;21.45;9.88;;;;;;;;;;5052112;28;20419;-62
2022/04/10 04:23:32;;;;;;;28.67;12.35;;;;;;;;;;5051077;28;20128;-60
2022/04/10 04:25:58;;;;;;;24.48;10.20;;;;;;;;;;5052086;28;20013;-60
2022/04/10 04:28:24;;;;;;;23.60;10.18;;;;;;;;;;5052215;28;20493;-60
2022/04/10 04:30:50;;;;;;;21.05;9.80;;;;;;;;;;5051897;28;20021;-60
2022/04/10 04:33:16;;;;;;;26.38;10.65;;;;;;;;;;5051228;28;20563;-60
2022/04/10 04:35:42;;;;;;;25.08;10.18;;;;;;;;;;5051956;28;20029;-60
2022/04/10 04:38:08;;;;;;;27.15;10.75;;;;;;;;;;5052243;28;20040;-60
2022/04/10 04:40:34;;;;;;;25.33;10.63;;;;;;;;;;5052113;28;20381;-62
2022/04/10 04:43:00;;;;;;;20.63;9.60;;;;;;;;;;5052089;28;20122;-60
2022/04/10 04:45:26;;;;;;;23.52;10.00;;;;;;;;;;5051999;28;20040;-60
2022/04/10 04:47:52;;;;;;;22.85;9.43;;;;;;;;;;5050487;28;20071;-62
2022/04/10 04:50:18;;;;;;;23.10;9.68;;;;;;;;;;5051629;28;20029;-62
2022/04/10 04:52:44;;;;;;;22.48;10.60;;;;;;;;;;5051954;28;20469;-59
2022/04/10 04:55:10;;;;;;;23.70;10.13;;;;;;;;;;5051560;28;20063;-59
2022/04/10 04:57:36;;;;;;;28.17;10.60;;;;;;;;;;5051802;28;20470;-62
2022/04/10 05:00:03;;;;;;;21.50;10.23;;;;;;;;;;5050205;28;20464;-62
2022/04/10 05:02:28;;;;;;;23.25;9.88;;;;;;;;;;5049431;28;20025;-60
2022/04/10 05:04:54;;;;;;;27.67;10.07;;;;;;;;;;5050330;28;20519;-61
2022/04/10 05:07:20;;;;;;;24.85;9.95;;;;;;;;;;5051779;28;20079;-60
2022/04/10 05:09:47;;;;;;;26.75;11.55;;;;;;;;;;5050532;28;20021;-61
2022/04/10 05:12:13;;;;;;;23.67;10.25;;;;;;;;;;5051698;28;20017;-61
2022/04/10 05:14:38;;;;;;;28.42;9.63;;;;;;;;;;5051545;28;20032;-61
2022/04/10 05:17:05;;;;;;;25.65;10.20;;;;;;;;;;5051536;28;20096;-62
2022/04/10 05:19:31;;;;;;;21.95;9.88;;;;;;;;;;5051644;28;20428;-62
2022/04/10 05:21:57;;;;;;;22.30;10.15;;;;;;;;;;5051669;28;20037;-60
2022/04/10 05:24:23;;;;;;;21.27;9.48;;;;;;;;;;5051525;28;20025;-62
2022/04/10 05:26:48;;;;;;;24.58;8.98;;;;;;;;;;5051569;28;20021;-60
2022/04/10 05:29:14;;;;;;;33.42;11.05;;;;;;;;;;5051366;28;20025;-59
2022/04/10 05:31:40;;;;;;;20.75;9.50;;;;;;;;;;5051921;28;20021;-61
2022/04/10 05:34:06;;;;;;;22.58;9.68;;;;;;;;;;5051288;28;20033;-60
2022/04/10 05:36:32;;;;;;;23.25;10.02;;;;;;;;;;5051585;28;20128;-59
2022/04/10 05:38:58;;;;;;;25.23;10.63;;;;;;;;;;5050122;28;20025;-60
2022/04/10 05:41:24;;;;;;;24.38;10.27;;;;;;;;;;5051820;28;20021;-60
2022/04/10 05:43:50;;;;;;;23.70;9.25;;;;;;;;;;5051594;28;20100;-60
2022/04/10 05:46:16;;;;;;;21.33;9.55;;;;;;;;;;5051466;28;20489;-62
2022/04/10 05:48:42;;;;;;;21.40;9.85;;;;;;;;;;5051864;28;20040;-63
2022/04/10 05:51:08;;;;;;;28.23;10.32;;;;;;;;;;5050381;28;20108;-62
2022/04/10 05:53:34;;;;;;;20.10;9.25;;;;;;;;;;5052086;28;20481;-61
2022/04/10 05:58:29;;;;;;;23.38;10.45;;;;;;;;;;5067068;28;20106;-61
2022/04/10 06:00:55;;;;;;;20.70;9.25;;;;;;;;;;5069871;28;20112;-62
2022/04/10 06:03:21;;;;;;;21.27;9.57;;;;;;;;;;5070031;28;20025;-58
2022/04/10 06:05:47;;;;;;;27.05;11.27;;;;;;;;;;5069670;28;20021;-59
2022/04/10 06:08:13;;;;;;;22.67;10.40;;;;;;;;;;5069789;28;20472;-60
2022/04/10 06:10:39;;;;;;;22.35;10.73;;;;;;;;;;5069556;28;20073;-59
2022/04/10 06:13:09;;;;;;;26.10;9.95;;;;;;;;;;5070277;28;20039;-59
2022/04/10 06:15:35;;;;;;;24.15;10.02;;;;;;;;;;5072937;28;20364;-59
2022/04/10 06:18:01;;;;;;;21.40;8.82;;;;;;;;;;5073448;28;20146;-59
2022/04/10 06:20:27;;;;;;;22.65;9.80;;;;;;;;;;5073005;28;20107;-60
2022/04/10 06:22:53;;;;;;;23.05;9.20;;;;;;;;;;5073263;28;20023;-59
2022/04/10 06:25:19;;;;;;;21.40;8.75;;;;;;;;;;5072814;28;20115;-60
2022/04/10 06:27:45;;;;;;;21.45;8.60;;;;;;;;;;5073377;28;20436;-58
2022/04/10 06:30:11;;;;;;;19.52;9.50;;;;;;;;;;5072784;28;20029;-60
2022/04/10 06:32:37;;;;;;;26.30;9.15;;;;;;;;;;5074170;28;20122;-61
2022/04/10 06:35:03;;;;;;;18.77;8.10;;;;;;;;;;5072983;28;20472;-55
2022/04/10 06:37:29;;;;;;;24.45;8.75;;;;;;;;;;5072562;28;20029;-57
2022/04/10 06:39:55;;;;;;;21.65;9.60;;;;;;;;;;5072434;28;20031;-59
2022/04/10 06:42:21;;;;;;;19.27;8.25;;;;;;;;;;5073073;28;20433;-59
2022/04/10 06:44:47;;;;;;;21.00;8.13;;;;;;;;;;5072657;28;20067;-62
2022/04/10 06:47:13;;;;;;;18.95;7.80;;;;;;;;;;5072727;28;20444;-60
2022/04/10 06:49:39;;;;;;;20.90;8.32;;;;;;;;;;5072666;28;20365;-59
2022/04/10 06:52:05;;;;;;;20.25;8.13;;;;;;;;;;5072701;28;20492;-57
2022/04/10 06:54:31;;;;;;;21.95;7.28;;;;;;;;;;5072295;28;20031;-55
2022/04/10 06:56:57;;;;;;;20.15;7.38;;;;;;;;;;5054741;28;20032;-62
2022/04/10 06:59:23;;;;;;;19.02;7.78;;;;;;;;;;5054955;28;20028;-62
2022/04/10 07:01:49;;;;;;;18.00;7.57;;;;;;;;;;5073566;28;20586;-62
2022/04/10 07:04:15;;;;;;;18.85;7.75;;;;;;;;;;5072988;28;20073;-61
2022/04/10 07:06:46;;;;;;;20.00;7.55;;;;;;;;;;5073119;28;20404;-60
2022/04/10 07:09:12;;;;;;;21.55;7.68;;;;;;;;;;5073013;28;20036;-61
2022/04/10 07:11:38;;;;;;;16.73;6.93;;;3.00;99.90;;;;;;5073373;28;20016;-60
2022/04/10 07:14:03;;;;;;;18.88;7.13;;;4.10;99.90;;;;;;5054207;28;20563;-63
2022/04/10 07:16:29;;;;;;;24.80;7.38;;;;;;;;;;5072718;28;20073;-59
2022/04/10 07:18:56;;;;;;;17.20;7.20;;;;;;;;;;5072223;28;20435;-60
2022/04/10 07:23:41;;;;;;;19.67;6.63;;;;;;;;;;5072278;28;20036;-62
2022/04/10 07:24:07;;;;;;;20.20;7.32;;;4.10;99.90;;;;;;5071290;28;20484;-58
2022/04/10 07:26:33;;;;;;;17.90;6.00;;;;;;;;;;5053093;28;20074;-58
2022/04/10 07:28:59;;;;;;;23.77;6.85;;;;;;;;;;5071562;28;20066;-67
2022/04/10 07:31:25;;;;;;;20.63;5.70;;;;;;;;;;5072040;28;20064;-58
2022/04/10 07:33:51;;;;;;;17.25;6.20;;;;;;;;;;5053818;28;20021;-56
2022/04/10 07:36:17;;;;;;;18.70;5.63;;;;;;;;;;5071818;28;20079;-58
2022/04/10 07:38:44;;;;;;;16.10;5.82;;;;;;;;;;5072992;28;20396;-59
2022/04/10 07:41:10;;;;;;;16.45;5.72;;;;;;;;;;5053663;28;20029;-60
2022/04/10 07:43:36;;;;;;;17.67;6.80;;;;;;;;;;5053651;28;20027;-58
2022/04/10 07:48:47;;;;;;;15.27;5.72;;;;;;;;;;5071636;28;20400;-56
2022/04/10 07:51:13;;;;;;;18.38;6.15;;;;;;;;;;5071846;28;20464;-59
2022/04/10 07:53:39;;;;;;;15.43;4.95;;;;;;;;;;5071937;28;20047;-57
2022/04/10 07:56:05;;;;;;;15.07;5.68;;;;;;;;;;5053168;28;20116;-59
2022/04/10 07:58:31;;;;;;;16.83;5.50;;;;;;;;;;5071549;28;20381;-60
2022/04/10 08:00:57;;;;;;;16.98;5.97;;;;;;;;;;5071418;28;20024;-59
2022/04/10 08:03:24;;;;;;;18.00;6.50;;;;;;;;;;5071314;28;20523;-57
2022/04/10 08:05:51;;;;;;;15.48;5.40;;;;;;;;;;5053273;28;20384;-60
2022/04/10 08:08:17;;;;;;;12.88;5.10;;;;;;;;;;5071192;28;20027;-60
2022/04/10 08:10:43;;;;;;;14.73;5.97;;;;;;;;;;5070787;28;20132;-59
2022/04/10 08:13:09;;;;;;;12.68;4.72;;;;;;;;;;5071258;28;20055;-59
2022/04/10 08:15:35;;;;;;;14.88;4.90;;;;;;;;;;5070727;28;20067;-59
2022/04/10 08:18:01;;;;;;;14.02;5.50;;;;;;;;;;5070881;28;20024;-63
2022/04/10 08:20:27;;;;;;;22.08;5.25;;;;;;;;;;5070797;28;20442;-58
2022/04/10 08:22:53;;;;;;;18.13;5.13;;;;;;;;;;5052965;28;20117;-62
2022/04/10 08:25:23;;;;;;;10.80;4.55;;;;;;;;;;5070703;28;20384;-61
2022/04/10 08:27:50;;;;;;;14.35;5.22;;;;;;;;;;4716525;28;10000017;-60
2022/04/10 08:30:16;;;;;;;17.67;5.80;;;;;;;;;;5066995;28;20065;-60
2022/04/10 08:32:43;;;;;;;18.60;6.13;;;;;;;;;;5068275;28;20103;-62
2022/04/10 08:35:09;;;;;;;13.82;5.03;;;;;;;;;;5049883;28;20033;-63
2022/04/10 08:37:35;;;;;;;14.60;5.40;;;4.90;99.90;;;;;;5067717;28;20028;-65
2022/04/10 08:40:02;;;;;;;14.50;5.65;;;6.60;99.90;;;;;;5067417;28;20028;-65
2022/04/10 08:42:28;;;;;;;17.10;6.25;;;6.60;99.90;;;;;;5068129;28;20121;-62
2022/04/10 08:44:55;;;;;;;14.80;5.57;;;;;;;;;;5067750;28;20491;-61
2022/04/10 08:47:21;;;;;;;16.03;5.70;;;;;;;;;;5049909;28;20119;-62
2022/04/10 08:49:48;;;;;;;14.77;5.25;;;;;;;;;;5067584;28;20061;-62
2022/04/10 08:52:16;;;;;;;15.95;6.28;;;;;;;;;;5049196;28;20033;-60
2022/04/10 08:54:42;;;;;;;17.95;5.97;;;;;;;;;;5067064;28;20028;-61
2022/04/10 08:57:08;;;;;;;9.90;4.93;;;;;;;;;;5067442;28;20420;-62
2022/04/10 08:59:34;;;;;;;15.95;5.43;;;;;;;;;;5066768;28;20435;-56
2022/04/10 09:02:00;;;;;;;13.60;5.35;;;;;;;;;;5067142;28;20141;-54
2022/04/10 09:04:26;;;;;;;13.38;4.78;;;;;;;;;;5066511;28;20451;-55
2022/04/10 09:07:11;;;;;;;12.05;5.05;;;;;;;;;;5067320;28;20025;-56
2022/04/10 09:09:41;;;;;;;15.18;5.32;;;;;;;;;;5066829;28;20105;-55
2022/04/10 09:12:07;;;;;;;15.43;6.07;;;;;;;;;;5067039;28;20052;-57
2022/04/10 09:14:36;;;;;;;13.75;5.13;;;;;;;;;;5066771;28;20449;-59
2022/04/10 09:17:10;;;;;;;15.15;5.18;;;;;;;;;;5066431;28;20028;-60
2022/04/10 09:19:39;;;;;;;14.70;5.10;;;;;;;;;;5066750;28;20035;-55
2022/04/10 09:22:35;;;;;;;15.70;5.22;;;;;;;;;;5067012;28;20098;-56
2022/04/10 09:25:04;;;;;;;13.23;5.50;;;;;;;;;;5047517;28;20040;-60
2022/04/10 09:27:31;;;;;;;12.18;5.00;;;;;;;;;;5066531;28;20033;-58
2022/04/10 09:29:57;;;;;;;14.15;5.03;;;;;;;;;;5067049;28;20082;-58
2022/04/10 09:32:39;;;;;;;15.52;5.50;;;;;;;;;;5066915;28;20116;-55
2022/04/10 09:35:05;;;;;;;13.93;5.78;;;;;;;;;;5066368;28;20032;-57
2022/04/10 09:37:52;;;;;;;15.10;5.97;;;;;;;;;;5066816;28;20028;-52
2022/04/10 09:40:31;;;;;;;13.43;5.00;;;;;;;;;;5062870;28;20556;-55
2022/04/10 09:43:04;;;;;;;17.85;5.68;;;;;;;;;;5065794;28;20027;-59
2022/04/10 09:45:30;;;;;;;17.23;6.70;;;;;;;;;;5068032;28;20036;-58
2022/04/10 09:47:56;;;;;;;14.95;5.68;;;;;;;;;;5054069;28;20498;-57
2022/04/10 09:50:32;;;;;;;15.50;5.28;;;;;;;;;;5063552;28;20028;-59
2022/04/10 09:52:59;;;;;;;12.88;4.65;;;;;;;;;;5071096;28;20020;-59
2022/04/10 09:55:35;;;;;;;12.77;4.90;;;;;;;;;;5073088;28;20044;-60
2022/04/10 09:58:01;;;;;;;13.45;5.38;;;;;;;;;;5073523;28;20132;-59
2022/04/10 10:00:28;;;;;;;12.18;5.22;;;;;;;;;;5055164;28;20035;-60
2022/04/10 10:02:56;;;;;;;11.73;5.60;;;;;;;;;;5073622;28;20029;-63
2022/04/10 10:05:22;;;;;;;13.48;5.30;;;;;;;;;;5054982;28;20028;-58
2022/04/10 10:07:49;;;;;;;16.65;6.38;;;;;;;;;;5073629;28;20024;-63
2022/04/10 10:10:17;;;;;;;16.70;5.93;;;;;;;;;;5069085;28;20013;-61
2022/04/10 10:12:43;;;;;;;11.40;4.63;;;;;;;;;;5062776;28;20021;-63
2022/04/10 10:15:10;;;;;;;16.30;5.50;;;;;;;;;;5069968;28;20106;-59
2022/04/10 10:17:39;;;;;;;14.25;5.40;;;;;;;;;;5072953;28;20052;-67
2022/04/10 10:20:06;;;;;;;18.45;8.18;;;;;;;;;;5073165;28;20017;-64
2022/04/10 10:22:32;;;;;;;12.50;5.45;;;;;;;;;;5055322;28;20039;-62
2022/04/10 10:25:00;;;;;;;14.07;5.32;;;;;;;;;;5072515;28;20051;-61
2022/04/10 10:27:33;;;;;;;14.13;5.35;;;;;;;;;;5060101;28;20025;-61
2022/04/10 10:30:35;;;;;;;13.85;5.53;;;6.80;99.90;;;;;;5052621;28;20017;-56
2022/04/10 10:33:21;;;;;;;14.30;5.78;;;;;;;;;;5035239;28;20031;-60
2022/04/10 10:35:51;;;;;;;12.02;5.53;;;;;;;;;;5052301;28;20107;-59
2022/04/10 10:38:21;;;;;;;11.30;5.60;;;;;;;;;;5052509;28;20396;-59
2022/04/10 10:40:48;;;;;;;15.32;7.00;;;;;;;;;;5052008;28;20029;-62
2022/04/10 10:43:18;;;;;;;13.73;5.78;;;;;;;;;;5054508;28;20029;-61
2022/04/10 10:45:45;;;;;;;12.20;5.90;;;;;;;;;;5072109;28;20507;-61
2022/04/10 10:48:29;;;;;;;11.95;5.60;;;;;;;;;;5072455;28;20032;-59
2022/04/10 10:51:00;;;;;;;14.60;6.20;;;;;;;;;;5054085;28;20112;-64
2022/04/10 10:53:44;;;;;;;14.35;6.20;;;;;;;;;;5054314;28;20060;-63
2022/04/10 10:56:40;;;;;;;12.13;5.70;;;;;;;;;;5071521;28;20028;-61
2022/04/10 10:59:24;;;;;;;11.55;5.60;;;;;;;;;;5058787;28;20071;-61
2022/04/10 11:02:10;;;;;;;13.20;6.00;;;;;;;;;;5054260;28;20029;-59
2022/04/10 11:04:39;;;;;;;14.07;5.30;;;;;;;;;;5071420;28;20028;-61
2022/04/10 11:07:12;;;;;;;12.52;5.63;;;;;;;;;;5072590;28;20021;-60
2022/04/10 11:09:49;;;;;;;11.70;5.03;;;;;;;;;;5053880;28;20021;-60
2022/04/10 11:12:15;;;;;;;18.52;8.63;;;;;;;;;;5072307;28;20078;-60
2022/04/10 11:14:45;;;;;;;19.08;8.02;;;;;;;;;;5054024;28;20028;-60
2022/04/10 11:17:14;;;;;;;13.15;5.45;;;;;;;;;;5072008;28;20390;-58
2022/04/10 11:19:46;;;;;;;11.13;4.80;;;8.60;99.90;;;;;;5071836;28;20082;-60
2022/04/10 11:22:19;;;;;;;13.40;5.88;;;;;;;;;;5071926;28;20410;-62
2022/04/10 11:24:45;;;;;;;16.85;7.93;;;;;;;;;;5071642;28;20032;-62
2022/04/10 11:27:13;;;;;;;11.32;5.22;;;;;;;;;;5072254;28;20021;-59
2022/04/10 11:29:42;;;;;;;12.10;5.37;;;;;;;;;;5071463;28;20032;-61
2022/04/10 11:32:16;;;;;;;14.18;6.15;;;;;;;;;;5072337;28;20016;-62
2022/04/10 11:34:42;;;;;;;13.13;6.00;;;;;;;;;;5071518;28;20046;-60
2022/04/10 11:37:18;;;;;;;13.23;5.85;;;10.20;99.90;;;;;;5071209;28;20021;-61
2022/04/10 11:39:44;;;;;;;12.70;5.97;;;;;;;;;;5071413;28;20040;-62
2022/04/10 11:42:13;;;;;;;11.32;6.03;;;;;;;;;;4369161;28;10000337;-60
2022/04/10 11:44:40;;;;;;;15.38;6.70;;;;;;;;;;5070774;28;20261;-62
2022/04/10 11:47:08;;;;;;;13.30;6.10;;;;;;;;;;5070951;28;20016;-60
2022/04/10 11:49:34;;;;;;;;;;;;;;;;;;5073194;28;20455;-65
2022/04/10 11:52:02;;;;;;;14.27;6.40;;;;;;;;;;4721094;28;9999979;-59
2022/04/10 11:54:36;;;;;;;14.40;6.20;;;;;;;;;;5068865;28;20028;-61
2022/04/10 11:57:09;;;;;;;12.60;5.72;;;;;;;;;;5084318;22;20037;-66
2022/04/10 11:59:36;;;;;;;12.45;5.45;;;;;;;;;;5050829;28;20079;-69
2022/04/10 12:02:02;;;;;;;13.02;5.60;;;;;;;;;;5050260;28;20052;-68
2022/04/10 12:04:29;;;;;;;11.98;4.97;;;;;;;;;;5060682;28;20033;-68
2022/04/10 12:07:10;;;;;;;12.10;5.78;;;;;;;;;;5073338;28;20035;-69
2022/04/10 12:09:36;;;;;;;11.98;5.60;;;13.30;95.50;;;;;;5072942;28;20020;-67
2022/04/10 12:12:02;;;;;;;13.95;6.18;;;;;;;;;;5071979;28;20021;-68
2022/04/10 12:14:28;;;;;;;12.52;6.13;;;;;;;;;;5072717;28;20377;-66
2022/04/10 12:16:54;;;;;;;13.75;6.22;;;;;;;;;;5090796;28;20031;-67
2022/04/10 12:19:35;;;;;;;11.85;5.60;;;;;;;;;;5072472;28;20028;-67
2022/04/10 12:22:02;;;;;;;13.40;5.43;;;;;;;;;;5073193;28;20027;-68
2022/04/10 12:24:28;;;;;;;34.03;19.73;;;;;;;;;;5090779;28;20050;-68
2022/04/10 12:26:54;;;;;;;15.77;7.60;;;;;;;;;;5072858;28;20078;-67
2022/04/10 12:29:21;;;;;;;16.13;6.93;;;;;;;;;;5089793;28;20024;-67
2022/04/10 12:31:48;;;;;;;13.40;6.57;;;;;;;;;;5090253;28;20046;-68
2022/04/10 12:34:14;;;;;;;13.95;6.32;;;;;;;;;;5090132;28;20024;-67
2022/04/10 12:36:47;;;;;;;14.52;6.78;;;;;;;;;;5090216;28;20103;-67
2022/04/10 12:39:23;;;;;;;12.82;6.00;;;;;;;;;;5071346;28;20040;-67
2022/04/10 12:41:58;;;;;;;12.80;5.97;;;;;;;;;;5071830;28;20292;-64
2022/04/10 12:44:24;;;;;;;13.82;6.10;;;;;;;;;;5089862;28;20047;-67
2022/04/10 12:46:50;;;;;;;13.63;6.00;;;;;;;;;;5092541;28;20075;-67
2022/04/10 12:49:17;;;;;;;12.50;5.70;;;;;;;;;;5092270;28;20114;-71
2022/04/10 12:52:03;;;;;;;12.07;5.63;;;;;;;;;;5092597;28;20287;-68
2022/04/10 12:54:35;;;;;;;16.02;6.03;;;;;;;;;;5092052;28;20058;-68
2022/04/10 12:57:02;;;;;;;14.43;7.32;;;;;;;;;;5094911;28;20036;-68
2022/04/10 12:59:46;;;;;;;12.75;6.00;;;;;;;;;;5074196;28;20031;-66
2022/04/10 13:02:24;;;;;;;13.27;5.90;;;;;;;;;;5074491;28;20050;-71
2022/04/10 13:04:57;;;;;;;11.65;5.75;;;;;;;;;;5092745;28;20026;-69
2022/04/10 13:07:23;;;;;;;15.45;6.50;;;;;;;;;;5093441;28;20028;-68
2022/04/10 13:09:51;;;;;;;14.20;6.05;;;;;;;;;;5092940;28;20031;-69
2022/04/10 13:12:25;;;;;;;11.77;6.18;;;;;;;;;;5093664;28;20035;-69
2022/04/10 13:14:52;;;;;;;11.30;5.60;;;;;;;;;;5075212;28;20024;-69
2022/04/10 13:17:18;;;;;;;13.57;5.90;;;;;;;;;;5074674;28;20051;-69
2022/04/10 13:19:44;;;;;;;11.13;5.57;;;;;;;;;;5075824;28;20031;-68
2022/04/10 13:22:13;;;;;;;11.35;5.75;;;;;;;;;;5076522;28;20032;-70
2022/04/10 13:24:42;;;;;;;12.98;5.80;;;;;;;;;;5079670;28;20035;-71
2022/04/10 13:27:09;;;;;;;12.90;5.63;;;;;;;;;;5100617;28;20012;-69
2022/04/10 13:29:36;;;;;;;12.40;5.53;;;;;;;;;;4728852;28;10000193;-69
2022/04/10 13:32:02;;;;;;;14.57;5.90;;;;;;;;;;5100493;28;20072;-70
2022/04/10 13:34:28;;;;;;;14.63;7.07;;;;;;;;;;5099897;28;20124;-69
2022/04/10 13:36:54;;;;;;;14.02;5.57;;;;;;;;;;5081857;28;20067;-70
2022/04/10 13:39:20;;;;;;;11.73;5.78;;;;;;;;;;5081289;28;20118;-67
2022/04/10 13:41:48;;;;;;;16.05;6.28;;;;;;;;;;5100649;28;20036;-69
2022/04/10 13:44:14;;;;;;;14.52;6.18;;;;;;;;;;5081637;28;20031;-69
2022/04/10 13:46:40;;;;;;;11.60;5.50;;;;;;;;;;5081552;28;20036;-69
2022/04/10 13:49:06;;;;;;;11.85;5.90;;;;;;;;;;5079372;28;20092;-69
2022/04/10 13:51:32;;;;;;;13.52;6.00;;;;;;;;;;5095844;28;20119;-69
2022/04/10 13:54:01;;;;;;;13.50;6.60;;;;;;;;;;5094646;28;20763;-70
2022/04/10 13:56:26;;;;;;;13.82;6.65;;;;;;;;;;5095877;28;20035;-68
2022/04/10 13:58:53;;;;;;;15.23;6.70;;;;;;;;;;5094888;28;20042;-68
2022/04/10 14:01:18;;;;;;;14.65;6.72;;;10.90;99.90;;;;;;5077888;28;20396;-70
2022/04/10 14:03:44;;;;;;;13.68;7.07;;;;;;;;;;5095545;28;20385;-68
2022/04/10 14:06:10;;;;;;;15.70;7.40;;;;;;;;;;5094906;28;20032;-67
2022/04/10 14:08:36;;;;;;;15.50;7.45;;;;;;;;;;5078092;28;20392;-70
2022/04/10 14:11:02;;;;;;;14.45;7.22;;;;;;;;;;5093978;28;20020;-67
2022/04/10 14:13:28;;;;;;;13.88;7.30;;;;;;;;;;4741384;28;9999613;-69
2022/04/10 14:15:54;;;;;;;16.35;7.82;;;;;;;;;;5092234;28;20400;-67
2022/04/10 14:18:20;;;;;;;15.52;7.70;;;;;;;;;;5092377;28;20024;-68
2022/04/10 14:20:46;;;;;;;15.35;8.10;;;17.30;94.50;;;;;;5096145;28;20055;-69
2022/04/10 14:23:11;;;;;;;13.23;7.25;;;21.90;80.40;;;;;;5094660;28;20429;-67
2022/04/10 14:25:38;;;;;;;15.32;7.90;;;21.30;74.40;;;;;;5095539;28;20048;-69
2022/04/10 14:28:04;;;;;;;15.27;7.40;;;;;;;;;;5094025;28;20016;-69
2022/04/10 14:30:30;;;;;;;15.73;7.63;;;;;;;;;;5094161;28;20537;-68